Airfield :
LOGIN :

Register | Disclaimer

   EN    FR    IT 

 










Legend :    VFR   Marginal VFR   IFR   Intensive IFR   Very Intensive IFR
Visi :
Ceiling :
>= 8 km
>= 3000ft
5 to 8 km
1000 to 3000 ft
1500m to 5 km
500 to 1000 ft
800 to 1500m
200 to 500 ft
< 800m
< 200 ft
Symbols :   Thunderstorms  Fog  Heavy snow  Heavy precipitations  Wind > 20 kt
SIGMETs :     Misc.  Thunderstorms  Icing  Turbulence  Mountain Waves  Volcanic Ashes






- Airport Elevation : 30 ft
- IATA code : CFN


EIDL - Donegal

CURRENT METAR :
  • 171203Z 26007KT 210V310 9999 BKN009 BKN011 OVC018 10/09 Q1018

EXPIRED METARs :
  • 171130Z 19007KT 5000 -RA BR OVC006 09/08 Q1018
  • 171100Z 18007KT 3000 -RA BR BKN006 OVC010 09/08 Q1018
  • 171030Z 17006KT 150V210 6000 BKN006 OVC013 08/07 Q1018
  • 171000Z 20005KT 160V230 7000 -RA BKN004 OVC022 08/07 Q1019
  • 170930Z 22002KT 2500 -RA BR SCT005 OVC008 07/06 Q1019
  • 170900Z 24003KT 6000 -RA BKN007 OVC016 07/06 Q1020
  • 170831Z 33002KT 8000 FEW008 BKN018 OVC028 07/05 Q1020
  • 170800Z 32009KT 3800 -RA BR FEW012 SCT017 OVC025 07/05 Q1020
  • 170749Z 32009KT 4000 -RA BR FEW012 SCT017 OVC025 07/05 Q1020

TAF TAF EIDL
Valid from the 17 at 12:00 until the 17 at 21:00 UTC


171100Z 1712/1721 VRB03KT 9999 FEW009 BKN025
TEMPO 1712/1714 2500 -RA BR BKN005
BECMG 1713/1715 01010KT
PROB30
TEMPO 1714/1717 4000 -RA BKN010
BECMG 1718/1720 VRB03KT



MET'MAP, your aeronautical weather chart ! - Copyright ORBIFLY December 2007 - Disclaimer

ORBIFLY MET'MAP TEAM :

Programming & Development : Alexandra Zaïnal
Original concept : Baudouin d'Aumeries
Technical & hardware support : Manuel Goepfert
Assistance : Marc-Olivier Méhu




SOURCES & CREDITS :

   NOAA